Time,TemperatureF,DewpointF,PressureIn,WindDirection,WindDirectionDegrees,WindSpeedMPH,WindSpeedGustMPH,Humidity,HourlyPrecipIn,Conditions,Clouds,dailyrainin,SoftwareType,DateUTC
2013-04-04 00:00:00,33.6,11.9,30.24,North,353,2.2,2.2,40,0.00,,---,0.00,VWS V14.01,2013-04-04 04:00:00,
2013-04-04 00:05:00,33.6,11.9,30.24,NE,40,2.7,2.7,40,0.00,,---,0.00,VWS V14.01,2013-04-04 04:05:00,
2013-04-04 00:10:00,33.3,11.6,30.24,NW,316,0.0,0.0,40,0.00,,---,0.00,VWS V14.01,2013-04-04 04:10:00,
2013-04-04 00:15:00,32.9,11.2,30.24,North,0,0.0,0.0,40,0.00,,---,0.00,VWS V14.01,2013-04-04 04:15:00,
2013-04-04 00:20:00,32.4,10.8,30.24,WSW,239,0.0,0.0,40,0.00,,---,0.00,VWS V14.01,2013-04-04 04:20:00,
2013-04-04 00:25:00,32.0,10.4,30.24,WSW,240,0.0,0.0,40,0.00,,---,0.00,VWS V14.01,2013-04-04 04:25:00,
2013-04-04 00:30:00,32.0,10.4,30.24,NNW,335,3.1,3.6,40,0.00,,---,0.00,VWS V14.01,2013-04-04 04:30:00,
2013-04-04 00:35:00,31.8,10.3,30.24,NNW,331,0.0,0.0,40,0.00,,---,0.00,VWS V14.01,2013-04-04 04:35:00,
2013-04-04 00:40:00,31.3,9.8,30.24,East,101,0.0,0.0,40,0.00,,---,0.00,VWS V14.01,2013-04-04 04:40:00,
2013-04-04 00:45:00,31.1,9.6,30.24,SE,146,0.0,0.0,40,0.00,,---,0.00,VWS V14.01,2013-04-04 04:45:00,
2013-04-04 00:50:00,30.7,9.3,30.24,SW,216,0.0,0.0,40,0.00,,---,0.00,VWS V14.01,2013-04-04 04:50:00,
2013-04-04 00:55:00,30.6,9.1,30.24,West,264,0.0,0.0,40,0.00,,---,0.00,VWS V14.01,2013-04-04 04:55:00,
2013-04-04 01:00:00,30.7,9.3,30.27,SW,231,0.0,0.0,40,0.00,,---,0.00,VWS V14.01,2013-04-04 05:00:00,
2013-04-04 01:05:00,30.4,9.0,30.27,SW,231,0.0,0.0,40,0.00,,---,0.00,VWS V14.01,2013-04-04 05:05:00,
2013-04-04 01:10:00,30.2,9.4,30.27,SW,233,0.0,0.0,41,0.00,,---,0.00,VWS V14.01,2013-04-04 05:10:00,
2013-04-04 01:15:00,29.7,8.9,30.27,SW,233,0.0,2.2,41,0.00,,---,0.00,VWS V14.01,2013-04-04 05:15:00,
2013-04-04 01:20:00,29.5,8.7,30.27,NW,307,0.0,0.0,41,0.00,,---,0.00,VWS V14.01,2013-04-04 05:20:00,
2013-04-04 01:25:00,29.5,8.7,30.27,NW,314,0.0,0.0,41,0.00,,---,0.00,VWS V14.01,2013-04-04 05:25:00,
2013-04-04 01:30:00,29.1,8.4,30.27,WNW,283,0.0,0.0,41,0.00,,---,0.00,VWS V14.01,2013-04-04 05:30:00,
2013-04-04 01:35:00,29.1,8.4,30.27,WNW,286,0.0,0.0,41,0.00,,---,0.00,VWS V14.01,2013-04-04 05:35:00,
2013-04-04 01:40:00,29.3,8.5,30.27,WNW,287,0.0,0.0,41,0.00,,---,0.00,VWS V14.01,2013-04-04 05:40:00,
2013-04-04 01:45:00,29.1,8.4,30.24,West,272,0.0,0.0,41,0.00,,---,0.00,VWS V14.01,2013-04-04 05:45:00,
2013-04-04 01:50:00,28.9,8.2,30.24,West,272,0.0,0.0,41,0.00,,---,0.00,VWS V14.01,2013-04-04 05:50:00,
2013-04-04 01:55:00,28.6,7.9,30.27,West,274,0.0,0.0,41,0.00,,---,0.00,VWS V14.01,2013-04-04 05:55:00,
2013-04-04 02:00:00,28.2,7.6,30.27,West,276,0.0,0.0,41,0.00,,---,0.00,VWS V14.01,2013-04-04 06:00:00,
2013-04-04 02:05:00,28.4,7.7,30.27,NW,314,2.2,3.6,41,0.00,,---,0.00,VWS V14.01,2013-04-04 06:05:00,
2013-04-04 02:10:00,28.2,7.6,30.27,NW,314,0.0,0.0,41,0.00,,---,0.00,VWS V14.01,2013-04-04 06:10:00,
2013-04-04 02:15:00,27.9,7.2,30.27,SW,215,0.0,2.2,41,0.00,,---,0.00,VWS V14.01,2013-04-04 06:15:00,
2013-04-04 02:20:00,27.5,6.9,30.27,SW,217,0.0,0.0,41,0.00,,---,0.00,VWS V14.01,2013-04-04 06:20:00,
2013-04-04 02:25:00,27.5,6.9,30.27,WNW,297,2.7,2.7,41,0.00,,---,0.00,VWS V14.01,2013-04-04 06:25:00,
2013-04-04 02:30:00,27.5,6.9,30.27,WNW,298,0.0,0.0,41,0.00,,---,0.00,VWS V14.01,2013-04-04 06:30:00,
2013-04-04 02:35:00,27.3,6.7,30.27,WNW,292,2.2,2.7,41,0.00,,---,0.00,VWS V14.01,2013-04-04 06:35:00,
2013-04-04 02:40:00,26.8,6.2,30.30,WNW,292,0.0,0.0,41,0.00,,---,0.00,VWS V14.01,2013-04-04 06:40:00,
2013-04-04 02:45:00,26.4,6.4,30.30,WNW,293,0.0,0.0,42,0.00,,---,0.00,VWS V14.01,2013-04-04 06:45:00,
2013-04-04 02:50:00,26.4,6.4,30.30,WNW,297,0.0,0.0,42,0.00,,---,0.00,VWS V14.01,2013-04-04 06:50:00,
2013-04-04 02:55:00,26.6,6.6,30.30,WNW,296,0.0,0.0,42,0.00,,---,0.00,VWS V14.01,2013-04-04 06:55:00,
2013-04-04 03:00:00,26.6,6.6,30.30,WNW,290,0.0,0.0,42,0.00,,---,0.00,VWS V14.01,2013-04-04 07:00:00,
2013-04-04 03:05:00,26.2,6.3,30.30,WNW,290,0.0,0.0,42,0.00,,---,0.00,VWS V14.01,2013-04-04 07:05:00,
2013-04-04 03:10:00,26.1,6.1,30.30,WNW,290,0.0,0.0,42,0.00,,---,0.00,VWS V14.01,2013-04-04 07:10:00,
2013-04-04 03:15:00,26.1,6.1,30.30,WNW,296,0.0,0.0,42,0.00,,---,0.00,VWS V14.01,2013-04-04 07:15:00,
2013-04-04 03:20:00,26.1,6.1,30.30,WNW,297,0.0,0.0,42,0.00,,---,0.00,VWS V14.01,2013-04-04 07:20:00,
2013-04-04 03:25:00,26.1,6.1,30.30,WNW,296,0.0,0.0,42,0.00,,---,0.00,VWS V14.01,2013-04-04 07:25:00,
2013-04-04 03:30:00,25.9,6.0,30.30,WNW,296,0.0,0.0,42,0.00,,---,0.00,VWS V14.01,2013-04-04 07:30:00,
2013-04-04 03:35:00,25.5,5.6,30.30,WNW,296,0.0,0.0,42,0.00,,---,0.00,VWS V14.01,2013-04-04 07:35:00,
2013-04-04 03:40:00,25.7,5.8,30.30,WNW,296,0.0,0.0,42,0.00,,---,0.00,VWS V14.01,2013-04-04 07:40:00,
2013-04-04 03:45:00,25.5,5.6,30.30,NW,314,0.0,0.0,42,0.00,,---,0.00,VWS V14.01,2013-04-04 07:45:00,
2013-04-04 03:50:00,25.5,5.6,30.30,NNW,339,0.0,0.0,42,0.00,,---,0.00,VWS V14.01,2013-04-04 07:50:00,
2013-04-04 03:55:00,25.3,5.5,30.30,NNW,339,0.0,0.0,42,0.00,,---,0.00,VWS V14.01,2013-04-04 07:55:00,
2013-04-04 04:00:00,25.2,5.3,30.30,NNW,338,0.0,0.0,42,0.00,,---,0.00,VWS V14.01,2013-04-04 08:00:00,
2013-04-04 04:05:00,25.0,5.1,30.30,NNW,338,0.0,0.0,42,0.00,,---,0.00,VWS V14.01,2013-04-04 08:05:00,
2013-04-04 04:10:00,25.0,5.1,30.30,NNW,338,0.0,0.0,42,0.00,,---,0.00,VWS V14.01,2013-04-04 08:10:00,
2013-04-04 04:15:00,24.6,4.8,30.30,NW,326,0.0,0.0,42,0.00,,---,0.00,VWS V14.01,2013-04-04 08:15:00,
2013-04-04 04:20:00,24.6,4.8,30.30,NNW,336,0.0,0.0,42,0.00,,---,0.00,VWS V14.01,2013-04-04 08:20:00,
2013-04-04 04:25:00,24.8,5.0,30.30,NNW,332,0.0,0.0,42,0.00,,---,0.00,VWS V14.01,2013-04-04 08:25:00,
2013-04-04 04:30:00,24.6,4.8,30.30,NNW,336,0.0,0.0,42,0.00,,---,0.00,VWS V14.01,2013-04-04 08:30:00,
2013-04-04 04:35:00,24.8,5.0,30.30,NNW,336,0.0,0.0,42,0.00,,---,0.00,VWS V14.01,2013-04-04 08:35:00,
2013-04-04 04:40:00,25.0,5.1,30.30,NNW,337,0.0,0.0,42,0.00,,---,0.00,VWS V14.01,2013-04-04 08:40:00,
2013-04-04 04:45:00,25.0,5.1,30.30,NW,311,0.0,0.0,42,0.00,,---,0.00,VWS V14.01,2013-04-04 08:45:00,
2013-04-04 04:50:00,24.6,4.8,30.30,NNW,340,0.0,0.0,42,0.00,,---,0.00,VWS V14.01,2013-04-04 08:50:00,
2013-04-04 04:55:00,24.8,5.0,30.30,WNW,285,0.0,0.0,42,0.00,,---,0.00,VWS V14.01,2013-04-04 08:55:00,
2013-04-04 05:00:00,24.4,4.7,30.30,SW,234,0.0,0.0,42,0.00,,---,0.00,VWS V14.01,2013-04-04 09:00:00,
2013-04-04 05:05:00,24.3,4.5,30.30,WSW,237,0.0,0.0,42,0.00,,---,0.00,VWS V14.01,2013-04-04 09:05:00,
2013-04-04 05:10:00,24.4,4.7,30.30,WSW,237,0.0,0.0,42,0.00,,---,0.00,VWS V14.01,2013-04-04 09:10:00,
2013-04-04 05:15:00,24.3,4.5,30.30,WSW,237,0.0,0.0,42,0.00,,---,0.00,VWS V14.01,2013-04-04 09:15:00,
2013-04-04 05:20:00,24.3,4.5,30.30,WSW,241,0.0,0.0,42,0.00,,---,0.00,VWS V14.01,2013-04-04 09:20:00,
2013-04-04 05:25:00,24.4,4.7,30.30,WSW,240,0.0,0.0,42,0.00,,---,0.00,VWS V14.01,2013-04-04 09:25:00,
2013-04-04 05:30:00,24.3,4.5,30.30,WSW,240,0.0,0.0,42,0.00,,---,0.00,VWS V14.01,2013-04-04 09:30:00,
2013-04-04 05:35:00,24.1,4.3,30.30,WSW,240,0.0,0.0,42,0.00,,---,0.00,VWS V14.01,2013-04-04 09:35:00,
2013-04-04 05:40:00,24.1,4.3,30.30,WSW,241,0.0,0.0,42,0.00,,---,0.00,VWS V14.01,2013-04-04 09:40:00,
2013-04-04 05:45:00,24.1,4.3,30.33,WSW,241,0.0,0.0,42,0.00,,---,0.00,VWS V14.01,2013-04-04 09:45:00,
2013-04-04 05:50:00,24.1,4.3,30.33,West,261,0.0,0.0,42,0.00,,---,0.00,VWS V14.01,2013-04-04 09:50:00,
2013-04-04 05:55:00,23.9,4.2,30.33,West,261,0.0,0.0,42,0.00,,---,0.00,VWS V14.01,2013-04-04 09:55:00,
2013-04-04 06:00:00,23.9,4.2,30.33,West,260,0.0,0.0,42,0.00,,---,0.00,VWS V14.01,2013-04-04 10:00:00,
2013-04-04 06:05:00,23.7,4.0,30.33,West,260,0.0,0.0,42,0.00,,---,0.00,VWS V14.01,2013-04-04 10:05:00,
2013-04-04 06:10:00,23.7,4.0,30.33,WSW,252,0.0,3.1,42,0.00,,---,0.00,VWS V14.01,2013-04-04 10:10:00,
2013-04-04 06:15:00,23.7,4.0,30.33,WSW,252,2.7,2.7,42,0.00,,---,0.00,VWS V14.01,2013-04-04 10:15:00,
2013-04-04 06:20:00,24.3,4.5,30.33,WSW,251,2.2,2.2,42,0.00,,---,0.00,VWS V14.01,2013-04-04 10:20:00,
2013-04-04 06:25:00,24.4,4.7,30.33,WSW,253,0.0,0.0,42,0.00,,---,0.00,VWS V14.01,2013-04-04 10:25:00,
2013-04-04 06:30:00,24.4,4.7,30.33,WSW,253,0.0,0.0,42,0.00,,---,0.00,VWS V14.01,2013-04-04 10:30:00,
2013-04-04 06:35:00,24.1,4.3,30.33,WSW,253,0.0,0.0,42,0.00,,---,0.00,VWS V14.01,2013-04-04 10:35:00,
2013-04-04 06:40:00,24.4,4.7,30.33,WSW,253,0.0,0.0,42,0.00,,---,0.00,VWS V14.01,2013-04-04 10:40:00,
2013-04-04 06:45:00,24.4,4.7,30.33,WSW,253,0.0,0.0,42,0.00,,---,0.00,VWS V14.01,2013-04-04 10:45:00,
2013-04-04 06:50:00,24.3,4.5,30.33,WSW,253,0.0,0.0,42,0.00,,---,0.00,VWS V14.01,2013-04-04 10:50:00,
2013-04-04 06:55:00,24.1,4.3,30.36,WSW,253,0.0,0.0,42,0.00,,---,0.00,VWS V14.01,2013-04-04 10:55:00,
2013-04-04 07:00:00,24.3,4.5,30.36,WSW,253,0.0,0.0,42,0.00,,---,0.00,VWS V14.01,2013-04-04 11:00:00,
2013-04-04 07:05:00,24.3,4.5,30.36,WSW,256,0.0,0.0,42,0.00,,---,0.00,VWS V14.01,2013-04-04 11:05:00,
2013-04-04 07:10:00,24.4,4.7,30.33,WSW,256,0.0,0.0,42,0.00,,---,0.00,VWS V14.01,2013-04-04 11:10:00,
2013-04-04 07:15:00,24.8,5.0,30.33,WSW,256,0.0,0.0,42,0.00,,---,0.00,VWS V14.01,2013-04-04 11:15:00,
2013-04-04 07:20:00,25.2,5.3,30.33,WSW,256,0.0,0.0,42,0.00,,---,0.00,VWS V14.01,2013-04-04 11:20:00,
2013-04-04 07:26:00,25.3,5.5,30.36,WSW,256,0.0,0.0,42,0.00,,---,0.00,VWS V14.01,2013-04-04 11:26:00,
2013-04-04 07:31:00,26.1,6.1,30.36,WSW,258,0.0,0.0,42,0.00,,---,0.00,VWS V14.01,2013-04-04 11:31:00,
2013-04-04 07:36:00,26.8,6.2,30.36,WSW,258,0.0,0.0,41,0.00,,---,0.00,VWS V14.01,2013-04-04 11:36:00,
2013-04-04 07:41:00,27.1,6.6,30.36,WSW,258,0.0,0.0,41,0.00,,---,0.00,VWS V14.01,2013-04-04 11:41:00,
2013-04-04 07:46:00,27.7,7.1,30.36,WSW,244,4.0,4.0,41,0.00,,---,0.00,VWS V14.01,2013-04-04 11:46:00,
2013-04-04 07:51:00,28.6,7.9,30.36,WSW,237,4.0,4.0,41,0.00,,---,0.00,VWS V14.01,2013-04-04 11:51:00,
2013-04-04 07:56:00,29.7,8.9,30.36,SW,221,2.2,4.0,41,0.00,,---,0.00,VWS V14.01,2013-04-04 11:56:00,
2013-04-04 08:01:00,30.2,9.4,30.36,SW,220,2.7,3.6,41,0.00,,---,0.00,VWS V14.01,2013-04-04 12:01:00,
2013-04-04 08:06:00,31.1,9.6,30.36,SW,231,4.9,4.9,40,0.00,,---,0.00,VWS V14.01,2013-04-04 12:06:00,
2013-04-04 08:11:00,31.6,10.1,30.36,SW,236,0.0,3.6,40,0.00,,---,0.00,VWS V14.01,2013-04-04 12:11:00,
2013-04-04 08:16:00,32.2,10.6,30.36,SW,224,2.7,4.0,40,0.00,,---,0.00,VWS V14.01,2013-04-04 12:16:00,
2013-04-04 08:21:00,32.5,10.9,30.36,SW,233,4.0,5.4,40,0.00,,---,0.00,VWS V14.01,2013-04-04 12:21:00,
2013-04-04 08:26:00,32.9,11.2,30.36,SW,224,3.6,3.6,40,0.00,,---,0.00,VWS V14.01,2013-04-04 12:26:00,
2013-04-04 08:31:00,33.3,11.6,30.36,WSW,252,4.0,4.9,40,0.00,,---,0.00,VWS V14.01,2013-04-04 12:31:00,
2013-04-04 08:36:00,33.6,11.9,30.36,WSW,244,3.1,6.3,40,0.00,,---,0.00,VWS V14.01,2013-04-04 12:36:00,
2013-04-04 08:41:00,33.8,12.1,30.36,SW,235,2.2,4.0,40,0.00,,---,0.00,VWS V14.01,2013-04-04 12:41:00,
2013-04-04 08:45:00,34.2,12.4,30.36,WSW,251,5.8,5.8,40,0.00,,---,0.00,VWS V14.01,2013-04-04 12:45:00,
2013-04-04 08:50:00,34.5,12.7,30.36,NNE,22,0.0,4.9,40,0.00,,---,0.00,VWS V14.01,2013-04-04 12:50:00,
2013-04-04 08:55:00,34.7,12.9,30.36,WSW,253,4.0,4.0,40,0.00,,---,0.00,VWS V14.01,2013-04-04 12:55:00,
2013-04-04 09:00:00,34.9,13.0,30.36,NW,316,2.7,3.6,40,0.00,,---,0.00,VWS V14.01,2013-04-04 13:00:00,
2013-04-04 09:05:00,35.2,13.4,30.36,North,11,3.1,3.1,40,0.00,,---,0.00,VWS V14.01,2013-04-04 13:05:00,
2013-04-04 09:10:00,35.4,13.5,30.36,WSW,253,2.7,2.7,40,0.00,,---,0.00,VWS V14.01,2013-04-04 13:10:00,
2013-04-04 09:15:00,35.8,13.8,30.36,SW,220,3.1,5.8,40,0.00,,---,0.00,VWS V14.01,2013-04-04 13:15:00,
2013-04-04 09:20:00,36.0,14.0,30.36,WSW,239,4.0,4.0,40,0.00,,---,0.00,VWS V14.01,2013-04-04 13:20:00,
2013-04-04 09:25:00,36.3,14.3,30.33,West,264,0.0,3.1,40,0.00,,---,0.00,VWS V14.01,2013-04-04 13:25:00,
2013-04-04 09:30:00,36.7,14.6,30.33,West,272,3.6,3.6,40,0.00,,---,0.00,VWS V14.01,2013-04-04 13:30:00,
2013-04-04 09:35:00,37.0,15.0,30.33,NW,308,5.4,5.4,40,0.00,,---,0.00,VWS V14.01,2013-04-04 13:35:00,
2013-04-04 09:40:00,37.6,14.9,30.33,WSW,239,0.0,3.1,39,0.00,,---,0.00,VWS V14.01,2013-04-04 13:40:00,
2013-04-04 09:45:00,37.9,15.2,30.33,North,353,6.3,6.3,39,0.00,,---,0.00,VWS V14.01,2013-04-04 13:45:00,
2013-04-04 09:50:00,38.1,15.4,30.33,NNE,21,0.0,0.0,39,0.00,,---,0.00,VWS V14.01,2013-04-04 13:50:00,
2013-04-04 09:55:00,39.0,16.2,30.33,NNE,16,2.2,3.6,39,0.00,,---,0.00,VWS V14.01,2013-04-04 13:55:00,
2013-04-04 10:00:00,39.7,16.8,30.33,SW,231,0.0,2.2,39,0.00,,---,0.00,VWS V14.01,2013-04-04 14:00:00,
2013-04-04 10:05:00,40.3,17.3,30.33,WSW,243,3.6,3.6,39,0.00,,---,0.00,VWS V14.01,2013-04-04 14:05:00,
2013-04-04 10:10:00,40.5,17.5,30.33,West,277,0.0,3.1,39,0.00,,---,0.00,VWS V14.01,2013-04-04 14:10:00,
2013-04-04 10:15:00,40.5,17.5,30.33,North,357,3.1,3.1,39,0.00,,---,0.00,VWS V14.01,2013-04-04 14:15:00,
2013-04-04 10:20:00,40.6,17.6,30.33,NNE,16,2.7,2.7,39,0.00,,---,0.00,VWS V14.01,2013-04-04 14:20:00,
2013-04-04 10:25:00,41.4,17.7,30.33,WSW,246,3.6,7.6,38,0.00,,---,0.00,VWS V14.01,2013-04-04 14:25:00,
2013-04-04 10:30:00,41.7,18.0,30.33,WSW,245,4.9,4.9,38,0.00,,---,0.00,VWS V14.01,2013-04-04 14:30:00,
2013-04-04 10:35:00,42.3,18.5,30.33,SW,225,4.0,7.6,38,0.00,,---,0.00,VWS V14.01,2013-04-04 14:35:00,
2013-04-04 10:40:00,42.4,18.6,30.33,WSW,238,6.3,7.2,38,0.00,,---,0.00,VWS V14.01,2013-04-04 14:40:00,
2013-04-04 10:45:00,42.8,19.0,30.33,SW,223,6.3,6.3,38,0.00,,---,0.00,VWS V14.01,2013-04-04 14:45:00,
2013-04-04 10:50:00,43.3,19.5,30.33,SSW,210,0.0,2.7,38,0.00,,---,0.00,VWS V14.01,2013-04-04 14:50:00,
2013-04-04 10:55:00,43.2,19.3,30.30,West,262,3.6,3.6,38,0.00,,---,0.00,VWS V14.01,2013-04-04 14:55:00,
2013-04-04 11:00:00,43.2,19.3,30.30,West,267,3.6,3.6,38,0.00,,---,0.00,VWS V14.01,2013-04-04 15:00:00,
2013-04-04 11:05:00,43.9,19.9,30.30,West,267,0.0,2.7,38,0.00,,---,0.00,VWS V14.01,2013-04-04 15:05:00,
2013-04-04 11:10:00,44.1,20.1,30.30,NNW,331,2.7,2.7,38,0.00,,---,0.00,VWS V14.01,2013-04-04 15:10:00,
2013-04-04 11:15:00,44.1,20.1,30.30,SSW,196,0.0,0.0,38,0.00,,---,0.00,VWS V14.01,2013-04-04 15:15:00,
2013-04-04 11:20:00,45.3,21.2,30.30,SE,125,3.1,5.8,38,0.00,,---,0.00,VWS V14.01,2013-04-04 15:20:00,
2013-04-04 11:25:00,45.5,21.4,30.30,SW,226,7.6,7.6,38,0.00,,---,0.00,VWS V14.01,2013-04-04 15:25:00,
2013-04-04 11:31:00,46.0,21.9,30.30,ESE,118,0.0,2.2,38,0.00,,---,0.00,VWS V14.01,2013-04-04 15:31:00,
2013-04-04 11:36:00,46.0,21.9,30.30,SSW,205,3.6,4.0,38,0.00,,---,0.00,VWS V14.01,2013-04-04 15:36:00,
2013-04-04 11:41:00,46.6,21.7,30.30,SSW,204,2.7,4.0,37,0.00,,---,0.00,VWS V14.01,2013-04-04 15:41:00,
2013-04-04 11:46:00,46.8,21.9,30.30,SE,143,2.7,4.9,37,0.00,,---,0.00,VWS V14.01,2013-04-04 15:46:00,
2013-04-04 11:51:00,46.8,21.9,30.30,WSW,254,0.0,3.6,37,0.00,,---,0.00,VWS V14.01,2013-04-04 15:51:00,
2013-04-04 11:56:00,47.3,22.4,30.30,SW,217,3.6,8.1,37,0.00,,---,0.00,VWS V14.01,2013-04-04 15:56:00,
2013-04-04 12:01:00,47.7,22.7,30.30,East,101,3.1,4.9,37,0.00,,---,0.00,VWS V14.01,2013-04-04 16:01:00,
2013-04-04 12:06:00,47.7,22.7,30.30,WSW,237,3.6,3.6,37,0.00,,---,0.00,VWS V14.01,2013-04-04 16:06:00,
2013-04-04 12:11:00,48.0,23.0,30.27,SW,215,5.8,8.1,37,0.00,,---,0.00,VWS V14.01,2013-04-04 16:11:00,
2013-04-04 12:16:00,47.8,22.9,30.27,SW,217,0.0,0.0,37,0.00,,---,0.00,VWS V14.01,2013-04-04 16:16:00,
2013-04-04 12:21:00,48.0,23.0,30.27,East,100,3.1,3.1,37,0.00,,---,0.00,VWS V14.01,2013-04-04 16:21:00,
2013-04-04 12:26:00,48.6,23.5,30.27,NE,45,0.0,0.0,37,0.00,,---,0.00,VWS V14.01,2013-04-04 16:26:00,
2013-04-04 12:31:00,47.8,22.9,30.27,NNE,19,4.9,4.9,37,0.00,,---,0.00,VWS V14.01,2013-04-04 16:31:00,
2013-04-04 12:36:00,48.2,23.2,30.27,SW,220,5.4,5.8,37,0.00,,---,0.00,VWS V14.01,2013-04-04 16:36:00,
2013-04-04 12:41:00,48.9,23.8,30.27,SW,216,5.8,5.8,37,0.00,,---,0.00,VWS V14.01,2013-04-04 16:41:00,
2013-04-04 12:46:00,49.1,24.0,30.27,SW,223,3.6,6.3,37,0.00,,---,0.00,VWS V14.01,2013-04-04 16:46:00,
2013-04-04 12:51:00,48.9,23.8,30.27,SW,221,4.9,5.8,37,0.00,,---,0.00,VWS V14.01,2013-04-04 16:51:00,
2013-04-04 12:56:00,49.1,24.0,30.24,SW,234,2.7,3.6,37,0.00,,---,0.00,VWS V14.01,2013-04-04 16:56:00,
2013-04-04 13:01:00,49.3,24.1,30.24,SSW,211,2.7,7.6,37,0.00,,---,0.00,VWS V14.01,2013-04-04 17:01:00,
2013-04-04 13:06:00,50.2,24.3,30.24,SW,220,4.5,4.5,36,0.00,,---,0.00,VWS V14.01,2013-04-04 17:06:00,
2013-04-04 13:11:00,50.2,24.3,30.24,SSW,198,3.1,3.6,36,0.00,,---,0.00,VWS V14.01,2013-04-04 17:11:00,
2013-04-04 13:16:00,50.5,24.6,30.24,WSW,244,5.4,6.3,36,0.00,,---,0.00,VWS V14.01,2013-04-04 17:16:00,
2013-04-04 13:21:00,50.5,24.6,30.24,SSW,201,3.1,8.3,36,0.00,,---,0.00,VWS V14.01,2013-04-04 17:21:00,
2013-04-04 13:26:00,50.7,24.8,30.24,West,280,5.8,5.8,36,0.00,,---,0.00,VWS V14.01,2013-04-04 17:26:00,
2013-04-04 13:30:00,51.3,25.2,30.24,SSW,210,3.6,8.3,36,0.00,,---,0.00,VWS V14.01,2013-04-04 17:30:00,
2013-04-04 13:35:00,51.6,25.6,30.24,ESE,112,0.0,3.1,36,0.00,,---,0.00,VWS V14.01,2013-04-04 17:35:00,
2013-04-04 13:41:00,51.8,25.7,30.24,SW,231,8.1,8.1,36,0.00,,---,0.00,VWS V14.01,2013-04-04 17:41:00,
2013-04-04 13:46:00,51.8,25.7,30.24,SW,229,8.3,8.3,36,0.00,,---,0.00,VWS V14.01,2013-04-04 17:46:00,
2013-04-04 13:51:00,51.8,25.7,30.24,SW,229,8.1,8.1,36,0.00,,---,0.00,VWS V14.01,2013-04-04 17:51:00,
2013-04-04 13:55:00,51.6,25.6,30.21,SW,226,7.6,8.3,36,0.00,,---,0.00,VWS V14.01,2013-04-04 17:55:00,
2013-04-04 14:00:00,51.6,25.6,30.21,SW,223,3.6,11.0,36,0.00,,---,0.00,VWS V14.01,2013-04-04 18:00:00,
2013-04-04 14:05:00,52.0,25.9,30.21,SW,226,2.7,3.1,36,0.00,,---,0.00,VWS V14.01,2013-04-04 18:05:00,
2013-04-04 14:10:00,52.7,26.5,30.21,SW,233,3.6,7.6,36,0.00,,---,0.00,VWS V14.01,2013-04-04 18:10:00,
2013-04-04 14:15:00,52.3,26.2,30.21,SW,229,5.4,11.0,36,0.00,,---,0.00,VWS V14.01,2013-04-04 18:15:00,
2013-04-04 14:21:00,52.2,26.0,30.21,North,4,5.4,10.1,36,0.00,,---,0.00,VWS V14.01,2013-04-04 18:21:00,
2013-04-04 14:26:00,52.3,26.2,30.21,SE,141,3.6,4.0,36,0.00,,---,0.00,VWS V14.01,2013-04-04 18:26:00,
2013-04-04 14:31:00,52.2,26.0,30.21,West,262,6.3,8.1,36,0.00,,---,0.00,VWS V14.01,2013-04-04 18:31:00,
2013-04-04 14:36:00,52.2,26.0,30.21,SSW,194,0.0,5.8,36,0.00,,---,0.00,VWS V14.01,2013-04-04 18:36:00,
2013-04-04 14:41:00,52.2,26.0,30.18,WSW,240,7.6,8.7,36,0.00,,---,0.00,VWS V14.01,2013-04-04 18:41:00,
2013-04-04 14:46:00,52.3,26.2,30.18,WSW,239,7.6,8.1,36,0.00,,---,0.00,VWS V14.01,2013-04-04 18:46:00,
2013-04-04 14:50:00,52.7,26.5,30.18,SW,223,0.0,3.1,36,0.00,,---,0.00,VWS V14.01,2013-04-04 18:50:00,
2013-04-04 14:56:00,52.9,26.7,30.18,SW,218,9.2,9.2,36,0.00,,---,0.00,VWS V14.01,2013-04-04 18:56:00,
2013-04-04 15:01:00,52.7,26.5,30.18,SSW,205,6.3,8.7,36,0.00,,---,0.00,VWS V14.01,2013-04-04 19:01:00,
2013-04-04 15:06:00,52.7,26.5,30.18,WSW,244,5.4,6.3,36,0.00,,---,0.00,VWS V14.01,2013-04-04 19:06:00,
2013-04-04 15:11:00,52.9,26.7,30.15,WSW,257,3.6,6.3,36,0.00,,---,0.00,VWS V14.01,2013-04-04 19:11:00,
2013-04-04 15:16:00,53.1,26.8,30.15,SW,230,7.6,10.5,36,0.00,,---,0.00,VWS V14.01,2013-04-04 19:16:00,
2013-04-04 15:20:00,52.9,26.7,30.15,SW,220,0.0,2.7,36,0.00,,---,0.00,VWS V14.01,2013-04-04 19:20:00,
2013-04-04 15:25:00,53.1,26.8,30.15,SW,231,5.4,5.4,36,0.00,,---,0.00,VWS V14.01,2013-04-04 19:25:00,
2013-04-04 15:31:00,53.1,26.8,30.15,SW,235,3.6,4.0,36,0.00,,---,0.00,VWS V14.01,2013-04-04 19:31:00,
2013-04-04 15:36:00,53.2,27.0,30.15,SW,215,3.1,6.7,36,0.00,,---,0.00,VWS V14.01,2013-04-04 19:36:00,
2013-04-04 15:41:00,53.2,27.0,30.15,WSW,245,5.4,8.3,36,0.00,,---,0.00,VWS V14.01,2013-04-04 19:41:00,
2013-04-04 15:46:00,53.4,27.1,30.15,SW,231,8.1,8.1,36,0.00,,---,0.00,VWS V14.01,2013-04-04 19:46:00,
2013-04-04 15:51:00,53.2,27.0,30.15,SSW,195,4.9,8.7,36,0.00,,---,0.00,VWS V14.01,2013-04-04 19:51:00,
2013-04-04 15:56:00,53.1,26.8,30.15,SW,224,9.6,11.0,36,0.00,,---,0.00,VWS V14.01,2013-04-04 19:56:00,
2013-04-04 16:01:00,53.2,27.0,30.15,WSW,240,2.2,5.8,36,0.00,,---,0.00,VWS V14.01,2013-04-04 20:01:00,
2013-04-04 16:06:00,53.4,27.1,30.15,SW,224,8.3,8.3,36,0.00,,---,0.00,VWS V14.01,2013-04-04 20:06:00,
2013-04-04 16:11:00,53.6,27.3,30.15,SW,224,4.0,10.5,36,0.00,,---,0.00,VWS V14.01,2013-04-04 20:11:00,
2013-04-04 16:16:00,53.4,27.1,30.15,West,266,0.0,4.9,36,0.00,,---,0.00,VWS V14.01,2013-04-04 20:16:00,
2013-04-04 16:21:00,53.6,27.3,30.15,SW,226,7.6,7.6,36,0.00,,---,0.00,VWS V14.01,2013-04-04 20:21:00,
2013-04-04 16:26:00,53.2,27.0,30.15,SW,226,5.4,10.5,36,0.00,,---,0.00,VWS V14.01,2013-04-04 20:26:00,
2013-04-04 16:31:00,53.2,27.0,30.15,SW,218,5.4,5.4,36,0.00,,---,0.00,VWS V14.01,2013-04-04 20:31:00,
2013-04-04 16:37:00,53.2,27.0,30.15,WSW,249,5.8,8.7,36,0.00,,---,0.00,VWS V14.01,2013-04-04 20:37:00,
2013-04-04 16:42:00,53.1,26.8,30.12,SW,231,3.1,5.8,36,0.00,,---,0.00,VWS V14.01,2013-04-04 20:42:00,
2013-04-04 16:47:00,53.1,26.8,30.12,SW,214,6.3,8.3,36,0.00,,---,0.00,VWS V14.01,2013-04-04 20:47:00,
2013-04-04 16:52:00,53.8,27.5,30.12,SW,229,5.4,8.1,36,0.00,,---,0.00,VWS V14.01,2013-04-04 20:52:00,
2013-04-04 16:57:00,54.5,28.1,30.12,SW,234,8.1,8.1,36,0.00,,---,0.00,VWS V14.01,2013-04-04 20:57:00,
2013-04-04 17:02:00,54.5,28.1,30.12,WSW,243,4.9,8.7,36,0.00,,---,0.00,VWS V14.01,2013-04-04 21:02:00,
2013-04-04 17:07:00,53.6,27.3,30.12,SW,224,8.3,8.7,36,0.00,,---,0.00,VWS V14.01,2013-04-04 21:07:00,
2013-04-04 17:12:00,52.7,26.5,30.12,South,179,5.8,8.7,36,0.00,,---,0.00,VWS V14.01,2013-04-04 21:12:00,
2013-04-04 17:17:00,52.3,26.2,30.12,WSW,238,2.7,4.0,36,0.00,,---,0.00,VWS V14.01,2013-04-04 21:17:00,
2013-04-04 17:22:00,51.6,25.6,30.12,SW,230,7.6,11.0,36,0.00,,---,0.00,VWS V14.01,2013-04-04 21:22:00,
2013-04-04 17:27:00,51.6,25.6,30.12,WSW,246,5.4,6.3,36,0.00,,---,0.00,VWS V14.01,2013-04-04 21:27:00,
2013-04-04 17:32:00,51.4,25.4,30.12,SW,216,4.9,5.4,36,0.00,,---,0.00,VWS V14.01,2013-04-04 21:32:00,
2013-04-04 17:37:00,51.3,25.2,30.12,WSW,255,5.4,6.3,36,0.00,,---,0.00,VWS V14.01,2013-04-04 21:37:00,
2013-04-04 17:42:00,51.3,25.2,30.12,SW,228,5.8,5.8,36,0.00,,---,0.00,VWS V14.01,2013-04-04 21:42:00,
2013-04-04 17:47:00,50.9,24.9,30.12,SW,233,12.3,12.3,36,0.00,,---,0.00,VWS V14.01,2013-04-04 21:47:00,
2013-04-04 17:52:00,50.7,24.8,30.12,SSW,213,3.6,6.7,36,0.00,,---,0.00,VWS V14.01,2013-04-04 21:52:00,
2013-04-04 17:57:00,50.5,24.6,30.12,SW,236,8.3,8.7,36,0.00,,---,0.00,VWS V14.01,2013-04-04 21:57:00,
2013-04-04 18:02:00,50.2,24.3,30.12,SW,224,8.3,8.3,36,0.00,,---,0.00,VWS V14.01,2013-04-04 22:02:00,
2013-04-04 18:07:00,50.0,24.1,30.12,SW,214,5.4,5.4,36,0.00,,---,0.00,VWS V14.01,2013-04-04 22:07:00,
2013-04-04 18:12:00,49.6,24.5,30.12,SW,221,10.5,10.5,37,0.00,,---,0.00,VWS V14.01,2013-04-04 22:12:00,
2013-04-04 18:17:00,49.5,24.3,30.12,SSW,202,5.8,6.3,37,0.00,,---,0.00,VWS V14.01,2013-04-04 22:17:00,
2013-04-04 18:22:00,49.3,24.1,30.12,SW,218,6.3,6.3,37,0.00,,---,0.00,VWS V14.01,2013-04-04 22:22:00,
2013-04-04 18:27:00,49.1,24.0,30.12,SSW,209,6.3,7.6,37,0.00,,---,0.00,VWS V14.01,2013-04-04 22:27:00,
2013-04-04 18:32:00,48.9,23.8,30.12,SSW,213,5.8,5.8,37,0.00,,---,0.00,VWS V14.01,2013-04-04 22:32:00,
2013-04-04 18:37:00,48.6,23.5,30.12,SW,223,10.5,10.5,37,0.00,,---,0.00,VWS V14.01,2013-04-04 22:37:00,
2013-04-04 18:42:00,48.4,23.3,30.12,SW,229,8.1,8.3,37,0.00,,---,0.00,VWS V14.01,2013-04-04 22:42:00,
2013-04-04 18:47:00,48.2,23.2,30.12,SW,225,4.9,4.9,37,0.00,,---,0.00,VWS V14.01,2013-04-04 22:47:00,
2013-04-04 18:52:00,47.7,22.7,30.12,SSW,209,3.6,7.6,37,0.00,,---,0.00,VWS V14.01,2013-04-04 22:52:00,
2013-04-04 18:57:00,47.5,22.5,30.12,SW,224,8.1,8.1,37,0.00,,---,0.00,VWS V14.01,2013-04-04 22:57:00,
2013-04-04 19:02:00,47.1,22.2,30.12,SW,231,5.4,5.8,37,0.00,,---,0.00,VWS V14.01,2013-04-04 23:02:00,
2013-04-04 19:07:00,46.9,22.0,30.12,SW,230,8.3,8.3,37,0.00,,---,0.00,VWS V14.01,2013-04-04 23:07:00,
2013-04-04 19:12:00,46.6,21.7,30.12,SW,228,5.8,5.8,37,0.00,,---,0.00,VWS V14.01,2013-04-04 23:12:00,
2013-04-04 19:17:00,46.4,21.6,30.12,SW,225,2.7,3.1,37,0.00,,---,0.00,VWS V14.01,2013-04-04 23:17:00,
2013-04-04 19:22:00,45.9,21.7,30.12,SW,228,4.0,4.0,38,0.00,,---,0.00,VWS V14.01,2013-04-04 23:22:00,
2013-04-04 19:27:00,45.7,21.5,30.12,SW,223,4.9,5.8,38,0.00,,---,0.00,VWS V14.01,2013-04-04 23:27:00,
2013-04-04 19:32:00,45.3,21.2,30.12,SW,232,3.6,3.6,38,0.00,,---,0.00,VWS V14.01,2013-04-04 23:32:00,
2013-04-04 19:37:00,45.1,21.1,30.12,SW,233,2.7,3.1,38,0.00,,---,0.00,VWS V14.01,2013-04-04 23:37:00,
2013-04-04 19:42:00,44.8,20.7,30.12,SW,223,6.3,6.3,38,0.00,,---,0.00,VWS V14.01,2013-04-04 23:42:00,
2013-04-04 19:47:00,44.6,20.6,30.12,SW,218,4.0,4.0,38,0.00,,---,0.00,VWS V14.01,2013-04-04 23:47:00,
2013-04-04 19:52:00,44.4,20.4,30.12,SW,214,2.2,2.2,38,0.00,,---,0.00,VWS V14.01,2013-04-04 23:52:00,
2013-04-04 19:57:00,44.2,20.3,30.09,WSW,250,0.0,0.0,38,0.00,,---,0.00,VWS V14.01,2013-04-04 23:57:00,
2013-04-04 20:02:00,44.1,20.1,30.09,SW,226,3.1,3.1,38,0.00,,---,0.00,VWS V14.01,2013-04-05 00:02:00,
2013-04-04 20:07:00,43.7,19.8,30.09,SW,226,0.0,2.2,38,0.00,,---,0.00,VWS V14.01,2013-04-05 00:07:00,
2013-04-04 20:12:00,43.5,19.6,30.09,SW,229,2.7,2.7,38,0.00,,---,0.00,VWS V14.01,2013-04-05 00:12:00,
2013-04-04 20:17:00,43.3,19.5,30.09,SW,228,0.0,0.0,38,0.00,,---,0.00,VWS V14.01,2013-04-05 00:17:00,
2013-04-04 20:22:00,43.2,19.3,30.09,SW,229,0.0,0.0,38,0.00,,---,0.00,VWS V14.01,2013-04-05 00:22:00,
2013-04-04 20:27:00,43.0,19.1,30.09,SW,229,0.0,0.0,38,0.00,,---,0.00,VWS V14.01,2013-04-05 00:27:00,
2013-04-04 20:32:00,42.8,19.0,30.09,SW,229,0.0,0.0,38,0.00,,---,0.00,VWS V14.01,2013-04-05 00:32:00,
2013-04-04 20:37:00,42.6,18.8,30.09,SW,229,0.0,0.0,38,0.00,,---,0.00,VWS V14.01,2013-04-05 00:37:00,
2013-04-04 20:42:00,42.4,18.6,30.09,SW,229,0.0,0.0,38,0.00,,---,0.00,VWS V14.01,2013-04-05 00:42:00,
2013-04-04 20:47:00,42.4,18.6,30.09,WSW,237,0.0,2.7,38,0.00,,---,0.00,VWS V14.01,2013-04-05 00:47:00,
2013-04-04 20:52:00,42.6,18.8,30.09,SW,235,4.0,4.0,38,0.00,,---,0.00,VWS V14.01,2013-04-05 00:52:00,
2013-04-04 20:57:00,42.8,19.0,30.09,SW,224,4.0,4.0,38,0.00,,---,0.00,VWS V14.01,2013-04-05 00:57:00,
2013-04-04 21:02:00,43.0,19.1,30.09,SW,217,2.7,4.0,38,0.00,,---,0.00,VWS V14.01,2013-04-05 01:02:00,
2013-04-04 21:07:00,43.0,19.1,30.09,SW,234,2.7,2.7,38,0.00,,---,0.00,VWS V14.01,2013-04-05 01:07:00,
2013-04-04 21:12:00,42.8,19.0,30.09,SW,234,0.0,2.2,38,0.00,,---,0.00,VWS V14.01,2013-04-05 01:12:00,
2013-04-04 21:17:00,42.8,19.0,30.09,SW,233,4.0,5.4,38,0.00,,---,0.00,VWS V14.01,2013-04-05 01:17:00,
2013-04-04 21:22:00,42.8,19.0,30.09,WSW,237,3.6,3.6,38,0.00,,---,0.00,VWS V14.01,2013-04-05 01:22:00,
2013-04-04 21:27:00,42.8,19.0,30.09,WSW,242,0.0,0.0,38,0.00,,---,0.00,VWS V14.01,2013-04-05 01:27:00,
2013-04-04 21:32:00,43.2,19.3,30.09,SW,224,8.1,8.7,38,0.00,,---,0.00,VWS V14.01,2013-04-05 01:32:00,
2013-04-04 21:37:00,43.2,19.3,30.09,SSW,203,6.3,6.3,38,0.00,,---,0.00,VWS V14.01,2013-04-05 01:37:00,
2013-04-04 21:42:00,43.2,19.3,30.09,SW,214,5.4,5.8,38,0.00,,---,0.00,VWS V14.01,2013-04-05 01:42:00,
2013-04-04 21:47:00,43.0,19.1,30.09,SSW,206,7.6,7.6,38,0.00,,---,0.00,VWS V14.01,2013-04-05 01:47:00,
2013-04-04 21:52:00,43.0,19.1,30.09,WSW,239,4.0,5.8,38,0.00,,---,0.00,VWS V14.01,2013-04-05 01:52:00,
2013-04-04 21:57:00,42.8,19.0,30.09,WSW,255,5.8,5.8,38,0.00,,---,0.00,VWS V14.01,2013-04-05 01:57:00,
2013-04-04 22:02:00,42.8,19.0,30.09,SW,221,4.9,4.9,38,0.00,,---,0.00,VWS V14.01,2013-04-05 02:02:00,
2013-04-04 22:07:00,42.6,18.8,30.09,SW,229,3.1,4.0,38,0.00,,---,0.00,VWS V14.01,2013-04-05 02:07:00,
2013-04-04 22:12:00,42.4,18.6,30.09,SW,230,4.9,4.9,38,0.00,,---,0.00,VWS V14.01,2013-04-05 02:12:00,
2013-04-04 22:17:00,42.4,18.6,30.09,SW,229,5.4,5.4,38,0.00,,---,0.00,VWS V14.01,2013-04-05 02:17:00,
2013-04-04 22:22:00,42.3,18.5,30.09,WSW,249,4.9,4.9,38,0.00,,---,0.00,VWS V14.01,2013-04-05 02:22:00,
2013-04-04 22:27:00,42.3,18.5,30.09,SW,233,4.9,4.9,38,0.00,,---,0.00,VWS V14.01,2013-04-05 02:27:00,
2013-04-04 22:32:00,42.1,18.3,30.09,SW,219,4.0,5.4,38,0.00,,---,0.00,VWS V14.01,2013-04-05 02:32:00,
2013-04-04 22:37:00,42.1,18.3,30.09,WSW,238,4.9,4.9,38,0.00,,---,0.00,VWS V14.01,2013-04-05 02:37:00,
2013-04-04 22:42:00,42.1,18.3,30.09,SW,230,5.8,7.6,38,0.00,,---,0.00,VWS V14.01,2013-04-05 02:42:00,
2013-04-04 22:47:00,41.9,18.2,30.09,SW,228,3.6,5.4,38,0.00,,---,0.00,VWS V14.01,2013-04-05 02:47:00,
2013-04-04 22:52:00,41.9,18.2,30.09,SW,229,3.6,3.6,38,0.00,,---,0.00,VWS V14.01,2013-04-05 02:52:00,
2013-04-04 22:57:00,41.7,18.0,30.06,WSW,246,3.6,4.9,38,0.00,,---,0.00,VWS V14.01,2013-04-05 02:57:00,
2013-04-04 23:02:00,41.5,17.8,30.06,WSW,237,2.7,4.0,38,0.00,,---,0.00,VWS V14.01,2013-04-05 03:02:00,
2013-04-04 23:07:00,41.4,17.7,30.06,SW,230,2.2,3.6,38,0.00,,---,0.00,VWS V14.01,2013-04-05 03:07:00,
2013-04-04 23:12:00,41.4,17.7,30.06,SW,215,2.7,3.6,38,0.00,,---,0.00,VWS V14.01,2013-04-05 03:12:00,
2013-04-04 23:17:00,41.4,17.7,30.06,SW,232,3.6,3.6,38,0.00,,---,0.00,VWS V14.01,2013-04-05 03:17:00,
2013-04-04 23:22:00,41.2,17.5,30.06,SW,229,4.0,4.0,38,0.00,,---,0.00,VWS V14.01,2013-04-05 03:22:00,
2013-04-04 23:27:00,41.0,17.4,30.06,SW,228,0.0,3.1,38,0.00,,---,0.00,VWS V14.01,2013-04-05 03:27:00,
2013-04-04 23:32:00,41.0,17.4,30.06,SW,232,4.0,4.9,38,0.00,,---,0.00,VWS V14.01,2013-04-05 03:32:00,
2013-04-04 23:37:00,40.8,17.8,30.06,SW,230,0.0,0.0,39,0.00,,---,0.00,VWS V14.01,2013-04-05 03:37:00,
2013-04-04 23:42:00,40.8,17.8,30.03,SW,225,0.0,0.0,39,0.00,,---,0.00,VWS V14.01,2013-04-05 03:42:00,
2013-04-04 23:47:00,40.8,17.8,30.03,SW,226,0.0,0.0,39,0.00,,---,0.00,VWS V14.01,2013-04-05 03:47:00,
2013-04-04 23:52:00,40.5,17.5,30.03,SW,226,0.0,0.0,39,0.00,,---,0.00,VWS V14.01,2013-04-05 03:52:00,
2013-04-04 23:57:00,40.5,17.5,30.03,SW,226,0.0,0.0,39,0.00,,---,0.00,VWS V14.01,2013-04-05 03:57:00,